createdAt,value
2018-11-25T00:00:51.586Z,100961.63
2018-11-25T00:03:19.673Z,100960.78
2018-11-25T00:05:47.844Z,100962.89
2018-11-25T00:08:15.966Z,100963.11
2018-11-25T00:10:44.075Z,100958.39
2018-11-25T00:13:12.187Z,100951.08
2018-11-25T00:15:40.262Z,100951.27
2018-11-25T00:18:08.352Z,100947.38
2018-11-25T00:20:36.470Z,100946.28
2018-11-25T00:23:04.566Z,100942.49
2018-11-25T00:25:32.648Z,100940.79
2018-11-25T00:28:00.705Z,100938.86
2018-11-25T00:30:28.847Z,100942.52
2018-11-25T00:32:56.951Z,100940.79
2018-11-25T00:35:25.055Z,100942.43
2018-11-25T00:37:53.141Z,100941.08
2018-11-25T00:40:21.258Z,100950.88
2018-11-25T00:42:49.374Z,100947.45
2018-11-25T00:45:19.677Z,100939.69
2018-11-25T00:47:48.369Z,100939.38
2018-11-25T00:50:16.479Z,100935.63
2018-11-25T00:52:44.581Z,100937.73
2018-11-25T00:55:16.399Z,100941.64
2018-11-25T00:57:44.519Z,100938.80
2018-11-25T01:00:16.834Z,100941.13
2018-11-25T01:02:44.980Z,100937.59
2018-11-25T01:05:13.021Z,100937.98
2018-11-25T01:07:41.071Z,100930.64
2018-11-25T01:10:10.569Z,100932.25
2018-11-25T01:12:38.726Z,100936.03
2018-11-25T01:15:08.967Z,100930.61
2018-11-25T01:17:37.038Z,100931.96
2018-11-25T01:20:06.732Z,100938.01
2018-11-25T01:22:34.808Z,100939.66
2018-11-25T01:25:02.868Z,100939.47
2018-11-25T01:27:30.935Z,100933.03
2018-11-25T01:29:58.996Z,100932.98
2018-11-25T01:32:27.050Z,100931.34
2018-11-25T01:35:00.875Z,100937.27
2018-11-25T01:37:23.281Z,100939.44
2018-11-25T01:39:51.344Z,100929.63
2018-11-25T01:42:19.394Z,100930.61
2018-11-25T01:44:47.452Z,100930.17
2018-11-25T01:47:15.539Z,100926.58
2018-11-25T01:49:43.580Z,100928.37
2018-11-25T01:52:11.661Z,100931.30
2018-11-25T01:54:39.721Z,100931.69
2018-11-25T01:57:07.769Z,100924.70
2018-11-25T01:59:35.836Z,100924.36
2018-11-25T02:02:03.912Z,100926.35
2018-11-25T02:04:31.960Z,100930.38
2018-11-25T02:07:00.019Z,100933.25
2018-11-25T02:09:28.079Z,100922.98
2018-11-25T02:11:56.126Z,100929.73
2018-11-25T02:14:24.169Z,100930.31
2018-11-25T02:16:52.252Z,100924.27
2018-11-25T02:19:20.312Z,100929.38
2018-11-25T02:21:48.394Z,100920.39
2018-11-25T02:24:16.465Z,100920.15
2018-11-25T02:26:44.548Z,100918.48
2018-11-25T02:29:12.610Z,100919.08
2018-11-25T02:31:40.684Z,100909.62
2018-11-25T02:34:08.724Z,100914.13
2018-11-25T02:36:36.786Z,100919.14
2018-11-25T02:39:07.469Z,100920.00
2018-11-25T02:41:35.520Z,100913.56
2018-11-25T02:44:03.573Z,100917.25
2018-11-25T02:46:31.650Z,100916.21
2018-11-25T02:48:59.717Z,100921.91
2018-11-25T02:51:27.782Z,100916.42
2018-11-25T02:53:55.844Z,100915.36
2018-11-25T02:56:23.888Z,100907.08
2018-11-25T02:58:51.956Z,100910.70
2018-11-25T03:01:20.072Z,100906.09
2018-11-25T03:03:48.138Z,100906.03
2018-11-25T03:06:16.245Z,100905.49
2018-11-25T03:08:44.302Z,100908.08
2018-11-25T03:11:12.352Z,100907.77
2018-11-25T03:13:40.505Z,100912.56
2018-11-25T03:16:08.578Z,100909.97
2018-11-25T03:18:36.648Z,100906.95
2018-11-25T03:21:04.701Z,100908.71
2018-11-25T03:23:32.745Z,100902.53
2018-11-25T03:26:00.797Z,100897.80
2018-11-25T03:28:28.858Z,100901.75
2018-11-25T03:30:56.928Z,100898.56
2018-11-25T03:33:24.997Z,100907.95
2018-11-25T03:35:53.042Z,100905.41
2018-11-25T03:38:21.097Z,100906.38
2018-11-25T03:40:49.177Z,100902.44
2018-11-25T03:43:17.275Z,100900.89
2018-11-25T03:45:45.349Z,100899.09
2018-11-25T03:48:13.417Z,100899.41
2018-11-25T03:50:41.477Z,100901.59
2018-11-25T03:53:09.566Z,100903.27
2018-11-25T03:55:37.609Z,100901.59
2018-11-25T03:58:05.760Z,100902.91
2018-11-25T04:00:33.866Z,100901.56
2018-11-25T04:03:01.950Z,100906.76
2018-11-25T04:05:30.059Z,100904.48
2018-11-25T04:07:58.120Z,100896.98
2018-11-25T04:10:26.203Z,100898.97
2018-11-25T04:12:54.193Z,100901.02
2018-11-25T04:15:22.259Z,100897.08
2018-11-25T04:17:50.349Z,100897.08
2018-11-25T04:20:19.393Z,100897.93
2018-11-25T04:22:47.580Z,100893.33
2018-11-25T04:25:15.660Z,100894.56
2018-11-25T04:27:43.744Z,100895.83
2018-11-25T04:30:12.978Z,100895.83
2018-11-25T04:32:41.052Z,100893.68
2018-11-25T04:35:10.264Z,100894.50
2018-11-25T04:37:38.396Z,100886.27
2018-11-25T04:40:14.716Z,100885.05
2018-11-25T04:42:42.776Z,100888.58
2018-11-25T04:45:13.820Z,100889.96
2018-11-25T04:47:41.891Z,100894.15
2018-11-25T04:50:12.276Z,100891.75
2018-11-25T04:52:41.129Z,100892.17
2018-11-25T04:55:08.965Z,100886.49
2018-11-25T04:57:37.021Z,100887.72
2018-11-25T05:00:08.362Z,100892.39
2018-11-25T05:02:36.423Z,100886.05
2018-11-25T05:05:04.614Z,100884.83
2018-11-25T05:07:32.706Z,100879.56
2018-11-25T05:10:00.764Z,100880.38
2018-11-25T05:12:28.841Z,100889.89
2018-11-25T05:14:56.934Z,100895.41
2018-11-25T05:17:25.013Z,100890.59
2018-11-25T05:19:53.076Z,100889.93
2018-11-25T05:22:21.164Z,100898.84
2018-11-25T05:24:49.213Z,100892.45
2018-11-25T05:27:17.268Z,100899.31
2018-11-25T05:29:45.350Z,100899.38
2018-11-25T05:32:13.408Z,100897.11
2018-11-25T05:34:41.490Z,100895.38
2018-11-25T05:37:09.538Z,100895.79
2018-11-25T05:39:37.626Z,100890.56
2018-11-25T05:42:05.868Z,100888.72
2018-11-25T05:44:33.924Z,100893.01
2018-11-25T05:47:01.964Z,100891.00
2018-11-25T05:49:36.335Z,100893.20
2018-11-25T05:51:58.116Z,100894.15
2018-11-25T05:54:26.154Z,100891.47
2018-11-25T05:56:54.209Z,100892.73
2018-11-25T05:59:22.256Z,100893.17
2018-11-25T06:01:50.328Z,100898.81
2018-11-25T06:04:18.424Z,100905.81
2018-11-25T06:06:46.484Z,100906.51
2018-11-25T06:09:14.542Z,100910.41
2018-11-25T06:11:42.605Z,100904.77
2018-11-25T06:14:10.656Z,100900.39
2018-11-25T06:16:38.703Z,100900.08
2018-11-25T06:19:06.778Z,100903.92
2018-11-25T06:21:34.844Z,100900.48
2018-11-25T06:24:02.923Z,100903.45
2018-11-25T06:26:31.028Z,100898.15
2018-11-25T06:28:59.088Z,100904.61
2018-11-25T06:31:28.082Z,100910.34
2018-11-25T06:33:55.248Z,100914.13
2018-11-25T06:36:23.312Z,100919.23
2018-11-25T06:38:51.384Z,100918.73
2018-11-25T06:41:19.461Z,100918.16
2018-11-25T06:43:47.544Z,100922.92
2018-11-25T06:46:15.605Z,100921.46
2018-11-25T06:48:43.666Z,100922.85
2018-11-25T06:51:11.744Z,100925.51
2018-11-25T06:53:40.720Z,100924.11
2018-11-25T06:56:08.755Z,100923.64
2018-11-25T06:58:36.850Z,100932.91
2018-11-25T07:01:04.978Z,100935.84
2018-11-25T07:03:33.108Z,100929.83
2018-11-25T07:06:01.184Z,100929.86
2018-11-25T07:08:29.273Z,100936.73
2018-11-25T07:10:57.328Z,100935.91
2018-11-25T07:13:25.372Z,100942.34
2018-11-25T07:15:53.424Z,100938.84
2018-11-25T07:18:21.457Z,100940.13
2018-11-25T07:20:49.524Z,100943.57
2018-11-25T07:23:17.602Z,100942.66
2018-11-25T07:25:45.720Z,100945.99
2018-11-25T07:28:18.513Z,100943.44
2018-11-25T07:30:41.885Z,100950.25
2018-11-25T07:33:09.973Z,100950.12
2018-11-25T07:35:38.047Z,100953.08
2018-11-25T07:38:06.439Z,100956.05
2018-11-25T07:40:35.253Z,100954.41
2018-11-25T07:43:02.544Z,100961.53
2018-11-25T07:45:30.989Z,100963.27
2018-11-25T07:47:58.688Z,100968.13
2018-11-25T07:50:26.775Z,100969.35
2018-11-25T07:52:54.858Z,100962.37
2018-11-25T07:55:24.161Z,100966.13
2018-11-25T07:57:53.245Z,100968.20
2018-11-25T08:00:22.345Z,100967.48
2018-11-25T08:02:50.415Z,100968.34
2018-11-25T08:05:20.664Z,100970.41
2018-11-25T08:07:48.748Z,100966.50
2018-11-25T08:10:16.865Z,100968.74
2018-11-25T08:12:45.497Z,100966.56
2018-11-25T08:15:14.389Z,100966.56
2018-11-25T08:17:42.539Z,100969.09
2018-11-25T08:20:25.524Z,100968.47
2018-11-25T08:22:53.614Z,100973.20
2018-11-25T08:25:22.381Z,100975.11
2018-11-25T08:27:50.460Z,100973.67
2018-11-25T08:30:20.465Z,100972.69
2018-11-25T08:32:48.584Z,100969.39
2018-11-25T08:35:17.044Z,100973.54
2018-11-25T08:37:45.245Z,100971.25
2018-11-25T08:40:15.293Z,100971.12
2018-11-25T08:42:43.381Z,100971.80
2018-11-25T08:45:13.128Z,100969.37
2018-11-25T08:47:41.248Z,100974.52
2018-11-25T08:50:16.002Z,100973.70
2018-11-25T08:52:45.039Z,100973.11
2018-11-25T08:55:15.157Z,100977.74
2018-11-25T08:57:43.357Z,100980.70
2018-11-25T09:00:12.659Z,100982.30
2018-11-25T09:02:40.713Z,100981.84
2018-11-25T09:05:10.109Z,100979.55
2018-11-25T09:07:38.225Z,100981.00
2018-11-25T09:10:09.677Z,100978.92
2018-11-25T09:12:37.781Z,100978.85
2018-11-25T09:15:10.616Z,100983.30
2018-11-25T09:17:38.685Z,100983.95
2018-11-25T09:20:09.124Z,100989.39
2018-11-25T09:22:37.179Z,100995.57
2018-11-25T09:25:06.920Z,100984.25
2018-11-25T09:27:35.029Z,100988.13
2018-11-25T09:30:03.120Z,100989.13
2018-11-25T09:32:31.193Z,100990.69
2018-11-25T09:34:59.270Z,100991.02
2018-11-25T09:37:27.311Z,100996.02
2018-11-25T09:39:55.474Z,100987.98
2018-11-25T09:42:24.340Z,100987.34
2018-11-25T09:44:52.452Z,100983.34
2018-11-25T09:47:20.504Z,100978.84
2018-11-25T09:49:48.556Z,100976.37
2018-11-25T09:52:16.638Z,100981.33
2018-11-25T09:54:44.696Z,100984.33
2018-11-25T09:57:12.775Z,100979.91
2018-11-25T09:59:40.901Z,100983.56
2018-11-25T10:02:09.005Z,100977.73
2018-11-25T10:04:37.119Z,100971.53
2018-11-25T10:07:05.287Z,100973.84
2018-11-25T10:09:33.380Z,100973.39
2018-11-25T10:12:01.472Z,100972.14
2018-11-25T10:14:29.520Z,100969.91
2018-11-25T10:16:57.636Z,100969.30
2018-11-25T10:19:25.684Z,100966.95
2018-11-25T10:21:53.769Z,100965.16
2018-11-25T10:24:21.841Z,100961.23
2018-11-25T10:26:49.944Z,100961.46
2018-11-25T10:29:18.065Z,100959.29
2018-11-25T10:31:46.161Z,100962.69
2018-11-25T10:34:14.245Z,100964.31
2018-11-25T10:36:42.324Z,100959.73
2018-11-25T10:39:10.375Z,100964.11
2018-11-25T10:41:38.912Z,100959.73
2018-11-25T10:44:06.992Z,100961.28
2018-11-25T10:46:35.056Z,100957.88
2018-11-25T10:49:03.182Z,100952.53
2018-11-25T10:51:31.925Z,100959.62
2018-11-25T10:54:00.024Z,100951.71
2018-11-25T10:56:28.105Z,100948.98
2018-11-25T10:58:56.254Z,100948.20
2018-11-25T11:01:29.784Z,100951.59
2018-11-25T11:03:58.514Z,100945.73
2018-11-25T11:06:32.711Z,100946.98
2018-11-25T11:09:00.762Z,100950.95
2018-11-25T11:11:28.865Z,100952.13
2018-11-25T11:13:56.939Z,100945.16
2018-11-25T11:16:25.020Z,100949.77
2018-11-25T11:18:53.173Z,100946.20
2018-11-25T11:21:21.304Z,100948.14
2018-11-25T11:23:49.353Z,100948.55
2018-11-25T11:26:25.448Z,100943.67
2018-11-25T11:28:53.589Z,100935.66
2018-11-25T11:31:21.649Z,100936.36
2018-11-25T11:33:49.732Z,100949.16
2018-11-25T11:36:17.820Z,100946.03
2018-11-25T11:38:45.921Z,100946.45
2018-11-25T11:41:14.019Z,100947.35
2018-11-25T11:43:42.182Z,100943.81
2018-11-25T11:46:10.257Z,100943.77
2018-11-25T11:48:38.383Z,100944.39
2018-11-25T11:51:06.450Z,100942.46
2018-11-25T11:53:34.544Z,100944.70
2018-11-25T11:56:02.652Z,100946.63
2018-11-25T11:58:30.737Z,100940.53
2018-11-25T12:00:58.808Z,100939.42
2018-11-25T12:03:26.865Z,100942.50
2018-11-25T12:05:54.899Z,100942.68
2018-11-25T12:08:22.987Z,100936.69
2018-11-25T12:10:51.074Z,100939.19
2018-11-25T12:13:19.125Z,100938.83
2018-11-25T12:15:47.208Z,100940.77
2018-11-25T12:18:15.268Z,100939.64
2018-11-25T12:20:43.364Z,100936.69
2018-11-25T12:23:11.424Z,100948.43
2018-11-25T12:25:39.536Z,100946.56
2018-11-25T12:28:07.788Z,100943.61
2018-11-25T12:30:35.864Z,100948.43
2018-11-25T12:33:03.937Z,100946.08
2018-11-25T12:35:32.001Z,100948.14
2018-11-25T12:38:00.065Z,100951.35
2018-11-25T12:40:28.161Z,100954.11
2018-11-25T12:42:57.461Z,100953.50
2018-11-25T12:45:25.552Z,100958.28
2018-11-25T12:47:53.636Z,100949.73
2018-11-25T12:50:23.020Z,100945.03
2018-11-25T12:52:51.093Z,100938.43
2018-11-25T12:55:20.381Z,100942.19
2018-11-25T12:57:48.624Z,100937.59
2018-11-25T13:00:25.897Z,100937.05
2018-11-25T13:02:53.956Z,100937.73
2018-11-25T13:05:22.023Z,100941.31
2018-11-25T13:07:50.081Z,100944.20
2018-11-25T13:10:18.153Z,100946.63
2018-11-25T13:12:46.256Z,100956.66
2018-11-25T13:15:14.349Z,100950.13
2018-11-25T13:17:42.435Z,100951.64
2018-11-25T13:20:12.610Z,100958.13
2018-11-25T13:22:40.907Z,100950.58
2018-11-25T13:25:10.299Z,100951.20
2018-11-25T13:27:38.480Z,100949.73
2018-11-25T13:30:11.687Z,100944.59
2018-11-25T13:32:39.827Z,100946.69
2018-11-25T13:35:08.664Z,100949.98
2018-11-25T13:37:36.787Z,100947.84
2018-11-25T13:40:06.331Z,100954.59
2018-11-25T13:42:34.402Z,100954.63
2018-11-25T13:45:01.484Z,100953.66
2018-11-25T13:47:29.568Z,100963.98
2018-11-25T13:49:57.652Z,100960.47
2018-11-25T13:52:25.701Z,100969.11
2018-11-25T13:54:53.861Z,100969.92
2018-11-25T13:57:21.919Z,100965.46
2018-11-25T13:59:49.973Z,100965.46
2018-11-25T14:02:18.001Z,100969.89
2018-11-25T14:04:46.076Z,100965.82
2018-11-25T14:07:14.448Z,100969.02
2018-11-25T14:09:42.544Z,100969.07
2018-11-25T14:12:10.620Z,100969.02
2018-11-25T14:14:38.769Z,100968.50
2018-11-25T14:17:06.873Z,100975.39
2018-11-25T14:19:34.932Z,100976.24
2018-11-25T14:22:03.010Z,100981.02
2018-11-25T14:24:31.076Z,100974.77
2018-11-25T14:27:01.316Z,100983.51
2018-11-25T14:29:29.776Z,100979.39
2018-11-25T14:31:57.841Z,100979.23
2018-11-25T14:34:25.897Z,100972.09
2018-11-25T14:36:53.968Z,100971.59
2018-11-25T14:39:22.026Z,100977.14
2018-11-25T14:41:50.128Z,100976.65
2018-11-25T14:44:18.284Z,100970.38
2018-11-25T14:46:46.368Z,100971.14
2018-11-25T14:49:14.456Z,100965.38
2018-11-25T14:51:42.566Z,100967.97
2018-11-25T14:54:10.637Z,100963.09
2018-11-25T14:56:38.724Z,100961.39
2018-11-25T14:59:06.791Z,100958.74
2018-11-25T15:01:34.871Z,100956.32
2018-11-25T15:04:02.974Z,100958.52
2018-11-25T15:06:31.049Z,100954.66
2018-11-25T15:08:59.106Z,100944.91
2018-11-25T15:11:27.194Z,100950.06
2018-11-25T15:13:55.293Z,100941.28
2018-11-25T15:16:23.381Z,100942.58
2018-11-25T15:18:51.566Z,100936.42
2018-11-25T15:21:19.644Z,100946.02
2018-11-25T15:23:47.721Z,100937.17
2018-11-25T15:26:17.536Z,100939.64
2018-11-25T15:28:45.621Z,100946.38
2018-11-25T15:31:13.692Z,100948.27
2018-11-25T15:33:42.176Z,100954.25
2018-11-25T15:36:10.253Z,100943.56
2018-11-25T15:38:38.357Z,100945.37
2018-11-25T15:41:06.658Z,100953.08
2018-11-25T15:43:34.732Z,100944.97
2018-11-25T15:46:02.852Z,100953.73
2018-11-25T15:48:31.869Z,100956.20
2018-11-25T15:50:59.940Z,100949.77
2018-11-25T15:53:28.013Z,100955.42
2018-11-25T15:55:58.039Z,100959.08
2018-11-25T15:58:26.114Z,100953.97
2018-11-25T16:00:54.186Z,100952.41
2018-11-25T16:03:22.221Z,100952.20
2018-11-25T16:05:53.727Z,100953.47
2018-11-25T16:08:21.801Z,100962.55
2018-11-25T16:10:49.863Z,100969.22
2018-11-25T16:13:17.953Z,100967.78
2018-11-25T16:15:46.013Z,100970.49
2018-11-25T16:18:14.114Z,100973.39
2018-11-25T16:20:42.193Z,100974.27
2018-11-25T16:23:10.881Z,100975.86
2018-11-25T16:25:43.661Z,100965.92
2018-11-25T16:28:16.216Z,100973.36
2018-11-25T16:30:44.297Z,100971.19
2018-11-25T16:33:12.394Z,100973.87
2018-11-25T16:35:40.462Z,100975.87
2018-11-25T16:38:08.525Z,100978.96
2018-11-25T16:40:36.661Z,100985.45
2018-11-25T16:43:05.166Z,100979.52
2018-11-25T16:45:33.254Z,100984.31
2018-11-25T16:48:01.338Z,100985.78
2018-11-25T16:50:29.425Z,100985.80
2018-11-25T16:52:57.534Z,100994.47
2018-11-25T16:55:25.621Z,100994.96
2018-11-25T16:57:53.740Z,100991.14
2018-11-25T17:00:21.780Z,100988.59
2018-11-25T17:02:49.880Z,100992.79
2018-11-25T17:05:20.384Z,100989.27
2018-11-25T17:07:51.181Z,100985.92
2018-11-25T17:10:19.241Z,100984.71
2018-11-25T17:12:47.331Z,100986.97
2018-11-25T17:15:21.387Z,100990.19
2018-11-25T17:17:49.473Z,100988.53
2018-11-25T17:20:17.526Z,100980.27
2018-11-25T17:22:45.600Z,100988.20
2018-11-25T17:25:14.123Z,100993.78
2018-11-25T17:27:42.476Z,100986.50
2018-11-25T17:30:12.193Z,100982.59
2018-11-25T17:32:40.268Z,100992.98
2018-11-25T17:35:10.391Z,100997.52
2018-11-25T17:37:38.466Z,100991.64
2018-11-25T17:40:08.092Z,100999.77
2018-11-25T17:42:36.183Z,101003.27
2018-11-25T17:45:04.445Z,101007.63
2018-11-25T17:47:32.553Z,101006.70
2018-11-25T17:50:00.642Z,101014.11
2018-11-25T17:52:28.710Z,101010.31
2018-11-25T17:54:56.800Z,101013.28
2018-11-25T17:57:24.900Z,101013.28
2018-11-25T17:59:53.004Z,101018.85
2018-11-25T18:02:21.052Z,101018.80
2018-11-25T18:04:49.160Z,101016.27
2018-11-25T18:07:17.213Z,101013.45
2018-11-25T18:09:45.313Z,101014.44
2018-11-25T18:12:13.377Z,101012.58
2018-11-25T18:14:41.460Z,101015.78
2018-11-25T18:17:09.543Z,101017.30
2018-11-25T18:19:37.629Z,101023.90
2018-11-25T18:22:10.584Z,101020.25
2018-11-25T18:24:38.641Z,101026.56
2018-11-25T18:27:06.777Z,101025.02
2018-11-25T18:29:34.836Z,101033.43
2018-11-25T18:32:02.917Z,101045.45
2018-11-25T18:34:30.973Z,101041.30
2018-11-25T18:36:59.029Z,101047.06
2018-11-25T18:39:27.121Z,101048.88
2018-11-25T18:41:55.197Z,101051.90
2018-11-25T18:44:23.286Z,101053.63
2018-11-25T18:46:51.357Z,101052.02
2018-11-25T18:49:19.453Z,101043.46
2018-11-25T18:51:47.564Z,101044.80
2018-11-25T18:54:15.674Z,101053.25
2018-11-25T18:56:43.776Z,101044.23
2018-11-25T18:59:11.852Z,101049.29
2018-11-25T19:01:49.509Z,101046.80
2018-11-25T19:04:17.628Z,101046.02
2018-11-25T19:06:45.756Z,101049.95
2018-11-25T19:09:13.828Z,101053.89
2018-11-25T19:11:41.917Z,101055.65
2018-11-25T19:14:09.966Z,101063.73
2018-11-25T19:16:38.070Z,101057.48
2018-11-25T19:19:06.252Z,101062.16
2018-11-25T19:21:34.320Z,101063.63
2018-11-25T19:24:02.386Z,101061.53
2018-11-25T19:26:30.442Z,101061.73
2018-11-25T19:28:58.516Z,101065.25
2018-11-25T19:31:26.636Z,101068.38
2018-11-25T19:33:54.726Z,101068.50
2018-11-25T19:36:22.821Z,101073.27
2018-11-25T19:38:50.869Z,101073.73
2018-11-25T19:41:18.950Z,101072.94
2018-11-25T19:43:47.048Z,101068.26
2018-11-25T19:46:15.129Z,101071.77
2018-11-25T19:48:43.179Z,101073.86
2018-11-25T19:51:17.289Z,101072.94
2018-11-25T19:53:39.343Z,101070.73
2018-11-25T19:56:07.413Z,101070.27
2018-11-25T19:58:35.501Z,101070.80
2018-11-25T20:01:03.618Z,101070.06
2018-11-25T20:03:31.693Z,101067.84
2018-11-25T20:05:59.744Z,101071.89
2018-11-25T20:08:27.832Z,101073.59
2018-11-25T20:10:55.927Z,101074.83
2018-11-25T20:13:23.997Z,101073.00
2018-11-25T20:15:52.082Z,101069.47
2018-11-25T20:18:20.160Z,101063.52
2018-11-25T20:21:54.557Z,101061.53
2018-11-25T20:24:22.600Z,101068.81
2018-11-25T20:26:56.320Z,101065.96
2018-11-25T20:29:24.993Z,101067.69
2018-11-25T20:32:57.280Z,101065.96
2018-11-25T20:35:25.348Z,101073.67
2018-11-25T20:37:58.891Z,101070.27
2018-11-25T20:40:27.005Z,101073.66
2018-11-25T20:42:55.357Z,101079.23
2018-11-25T20:45:29.039Z,101087.86
2018-11-25T20:47:59.214Z,101081.11
2018-11-25T20:50:26.337Z,101091.48
2018-11-25T20:52:59.884Z,101094.95
2018-11-25T20:55:28.081Z,101094.98
2018-11-25T20:57:56.173Z,101095.77
2018-11-25T21:00:25.546Z,101096.26
2018-11-25T21:02:53.629Z,101096.30
2018-11-25T21:05:21.741Z,101095.39
2018-11-25T21:07:49.840Z,101098.33
2018-11-25T21:10:19.088Z,101093.59
2018-11-25T21:12:49.693Z,101094.87
2018-11-25T21:15:17.864Z,101098.36
2018-11-25T21:17:45.988Z,101092.80
2018-11-25T21:20:18.543Z,101089.84
2018-11-25T21:22:46.620Z,101098.41
2018-11-25T21:25:18.969Z,101097.97
2018-11-25T21:27:47.119Z,101098.64
2018-11-25T21:30:18.150Z,101099.43
2018-11-25T21:32:47.112Z,101092.05
2018-11-25T21:35:15.210Z,101094.08
2018-11-25T21:37:43.293Z,101091.42
2018-11-25T21:40:14.663Z,101083.61
2018-11-25T21:42:42.778Z,101081.75
2018-11-25T21:45:12.167Z,101084.56
2018-11-25T21:47:40.352Z,101085.94
2018-11-25T21:50:13.008Z,101084.88
2018-11-25T21:52:41.099Z,101085.35
2018-11-25T21:55:10.672Z,101085.69
2018-11-25T21:57:38.784Z,101080.77
2018-11-25T22:00:24.336Z,101080.20
2018-11-25T22:02:52.428Z,101080.97
2018-11-25T22:05:24.689Z,101075.56
2018-11-25T22:07:48.604Z,101075.02
2018-11-25T22:10:18.785Z,101080.23
2018-11-25T22:12:47.090Z,101081.33
2018-11-25T22:15:22.715Z,101081.45
2018-11-25T22:17:50.997Z,101083.08
2018-11-25T22:20:19.284Z,101083.11
2018-11-25T22:22:47.369Z,101082.34
2018-11-25T22:25:16.352Z,101090.15
2018-11-25T22:27:44.573Z,101085.91
2018-11-25T22:30:23.670Z,101084.23
2018-11-25T22:32:51.804Z,101089.02
2018-11-25T22:35:21.366Z,101088.22
2018-11-25T22:37:49.434Z,101083.08
2018-11-25T22:40:18.326Z,101083.26
2018-11-25T22:42:48.243Z,101084.01
2018-11-25T22:45:18.299Z,101089.30
2018-11-25T22:47:46.388Z,101090.28
2018-11-25T22:50:16.364Z,101092.42
2018-11-25T22:52:44.501Z,101090.61
2018-11-25T22:55:14.701Z,101096.17
2018-11-25T22:57:42.900Z,101094.59
2018-11-25T23:00:28.422Z,101091.55
2018-11-25T23:02:56.558Z,101089.87
2018-11-25T23:05:36.029Z,101090.84
2018-11-25T23:08:04.091Z,101086.48
2018-11-25T23:10:32.195Z,101085.05
2018-11-25T23:13:00.296Z,101082.09
2018-11-25T23:15:28.367Z,101087.28
2018-11-25T23:17:56.440Z,101088.05
2018-11-25T23:20:24.492Z,101089.17
2018-11-25T23:22:52.576Z,101094.47
2018-11-25T23:25:20.636Z,101089.64
2018-11-25T23:27:48.749Z,101088.08
2018-11-25T23:30:16.816Z,101093.72
2018-11-25T23:32:44.888Z,101093.75
2018-11-25T23:35:16.654Z,101093.75
2018-11-25T23:37:44.746Z,101100.75
2018-11-25T23:40:12.823Z,101106.43
2018-11-25T23:42:40.896Z,101106.36
2018-11-25T23:45:11.752Z,101098.95
2018-11-25T23:47:39.819Z,101103.62
2018-11-25T23:50:09.517Z,101107.09
2018-11-25T23:52:37.748Z,101106.34
2018-11-25T23:55:13.770Z,101106.27
2018-11-25T23:57:41.915Z,101110.95
